Time;durP1;ratioP1;P1;durP2;ratioP2;P2;SDS_P1;SDS_P2;PMS_P1;PMS_P2;Temp;Humidity;BMP_temperature;BMP_pressure;BME280_temperature;BME280_humidity;BME280_pressure;Samples;Min_cycle;Max_cycle;Signal;HPM_P1;HPM_P2
2022/12/03 00:00:51;;;;;;;;;;;3.80;84.00;;;;;;4936755;29;19934;-83
2022/12/03 00:03:17;;;;;;;;;;;3.80;83.80;;;;;;4936498;29;19906;-82
2022/12/03 00:05:42;;;;;;;;;;;3.80;83.90;;;;;;4936732;29;20363;-83
2022/12/03 00:08:08;;;;;;;;;;;3.80;84.00;;;;;;4919778;29;19907;-82
2022/12/03 00:10:33;;;;;;;;;;;3.80;84.10;;;;;;4936712;29;19907;-82
2022/12/03 00:12:59;;;;;;;;;;;3.80;84.10;;;;;;4936488;29;20276;-83
2022/12/03 00:15:24;;;;;;;;;;;3.80;84.50;;;;;;4919460;29;19907;-83
2022/12/03 00:17:50;;;;;;;;;;;3.70;84.50;;;;;;4936463;29;19910;-83
2022/12/03 00:20:17;;;;;;;;;;;3.80;84.50;;;;;;4937545;29;20001;-83
2022/12/03 00:22:42;;;;;;;;;;;3.70;84.30;;;;;;4937376;29;19907;-82
2022/12/03 00:25:08;;;;;;;;;;;3.80;84.20;;;;;;4920535;29;19907;-82
2022/12/03 00:27:33;;;;;;;;;;;3.80;84.10;;;;;;4921075;29;19989;-82
2022/12/03 00:29:59;;;;;;;;;;;3.80;84.10;;;;;;4929186;29;19910;-82
2022/12/03 00:32:24;;;;;;;;;;;3.80;84.10;;;;;;4919406;29;19911;-82
2022/12/03 00:34:50;;;;;;;;;;;3.80;84.00;;;;;;4938239;29;19969;-83
2022/12/03 00:37:15;;;;;;;;;;;3.80;84.20;;;;;;4920591;29;20339;-81
2022/12/03 00:39:40;;;;;;;;;;;3.80;84.10;;;;;;4919848;29;19906;-82
2022/12/03 00:42:06;;;;;;;;;;;3.70;83.80;;;;;;4936285;29;19910;-82
2022/12/03 00:44:31;;;;;;;;;;;3.70;84.10;;;;;;4919214;29;19907;-83
2022/12/03 00:46:57;;;;;;;;;;;3.60;83.40;;;;;;4936517;29;19906;-82
2022/12/03 00:49:22;;;;;;;;;;;3.60;84.00;;;;;;4939988;29;19989;-82
2022/12/03 00:51:48;;;;;;;;;;;3.60;84.00;;;;;;4939849;29;19914;-84
2022/12/03 00:54:13;;;;;;;;;;;3.50;84.10;;;;;;4940173;29;20065;-84
2022/12/03 00:56:39;;;;;;;;;;;3.50;84.20;;;;;;4939815;29;19907;-83
2022/12/03 00:59:04;;;;;;;;;;;3.60;84.10;;;;;;4939821;29;19911;-82
2022/12/03 01:01:30;;;;;;;;;;;3.50;83.60;;;;;;4940145;29;19906;-84
2022/12/03 01:03:55;;;;;;;;;;;3.50;83.60;;;;;;4922609;29;19918;-82
2022/12/03 01:06:21;;;;;;;;;;;3.50;83.50;;;;;;4922797;29;19957;-82
2022/12/03 01:08:46;;;;;;;;;;;3.60;82.80;;;;;;4939663;29;19913;-83
2022/12/03 01:13:56;;;;;;;;;;;3.50;82.10;;;;;;4939496;29;20291;-82
2022/12/03 01:16:21;;;;;;;;;;;3.50;82.50;;;;;;4939561;29;19910;-81
2022/12/03 01:18:47;;;;;;;;;;;3.50;82.70;;;;;;4939558;29;19917;-81
2022/12/03 01:21:12;;;;;;;;;;;3.50;82.80;;;;;;4922536;29;20419;-84
2022/12/03 01:23:38;;;;;;;;;;;3.50;82.80;;;;;;4939534;29;20006;-79
2022/12/03 01:26:03;;;;;;;;;;;3.50;82.80;;;;;;4939317;29;19907;-81
2022/12/03 01:28:30;;;;;;;;;;;3.60;82.80;;;;;;4939347;29;19914;-83
2022/12/03 01:33:39;;;;;;;;;;;3.60;82.80;;;;;;4939548;29;19970;-84
2022/12/03 01:36:05;;;;;;;;;;;3.60;82.80;;;;;;4939338;29;19911;-81
2022/12/03 01:38:30;;;;;;;;;;;3.60;82.50;;;;;;4922117;29;19914;-84
2022/12/03 01:40:56;;;;;;;;;;;3.70;82.70;;;;;;4939202;29;19957;-82
2022/12/03 01:43:21;;;;;;;;;;;3.60;82.30;;;;;;4939186;29;19907;-84
2022/12/03 01:45:47;;;;;;;;;;;3.70;82.10;;;;;;4921909;29;19918;-83
2022/12/03 01:48:15;;;;;;;;;;;3.60;81.70;;;;;;4939150;29;20368;-83
2022/12/03 01:50:41;;;;;;;;;;;3.60;81.40;;;;;;4939110;29;19907;-84
2022/12/03 01:53:08;;;;;;;;;;;3.60;81.20;;;;;;4939066;29;19919;-81
2022/12/03 01:55:34;;;;;;;;;;;3.50;81.20;;;;;;4938677;29;19977;-81
2022/12/03 01:58:00;;;;;;;;;;;3.60;81.40;;;;;;4938740;29;19978;-81
2022/12/03 02:00:26;;;;;;;;;;;3.70;81.20;;;;;;4921532;29;19913;-81
2022/12/03 02:02:53;;;;;;;;;;;3.60;81.10;;;;;;4921519;29;20264;-81
2022/12/03 02:05:20;;;;;;;;;;;3.60;81.30;;;;;;4921529;29;19919;-81
2022/12/03 02:07:46;;;;;;;;;;;3.60;81.30;;;;;;4938694;29;19907;-81
2022/12/03 02:10:12;;;;;;;;;;;3.60;81.50;;;;;;4921926;29;19980;-81
2022/12/03 02:12:58;;;;;;;;;;;3.60;81.30;;;;;;4939155;29;20291;-81
2022/12/03 02:15:24;;;;;;;;;;;3.50;80.60;;;;;;4939139;29;19976;-82
2022/12/03 02:17:49;;;;;;;;;;;3.50;80.30;;;;;;4921763;29;20363;-82
2022/12/03 02:20:15;;;;;;;;;;;3.50;80.60;;;;;;4921545;29;19945;-81
2022/12/03 02:22:43;;;;;;;;;;;3.40;80.40;;;;;;4921275;29;19910;-81
2022/12/03 02:25:12;;;;;;;;;;;3.40;80.70;;;;;;4938481;29;19907;-81
2022/12/03 02:27:37;;;;;;;;;;;3.40;80.80;;;;;;4938443;29;19911;-80
2022/12/03 02:30:03;;;;;;;;;;;3.40;80.90;;;;;;4938449;29;19906;-80
2022/12/03 02:32:29;;;;;;;;;;;3.40;80.80;;;;;;4938377;29;19915;-81
2022/12/03 02:34:55;;;;;;;;;;;3.40;81.10;;;;;;4921373;29;19907;-80
2022/12/03 02:37:22;;;;;;;;;;;3.40;81.10;;;;;;4938166;29;19907;-80
2022/12/03 02:39:50;;;;;;;;;;;3.40;81.20;;;;;;4938144;29;19911;-81
2022/12/03 02:42:34;;;;;;;;;;;3.40;81.30;;;;;;4921043;29;19970;-80
2022/12/03 02:45:20;;;;;;;;;;;3.50;81.00;;;;;;4938256;29;19906;-80
2022/12/03 02:47:48;;;;;;;;;;;3.40;79.20;;;;;;4920290;29;20280;-80
2022/12/03 02:50:16;;;;;;;;;;;3.30;79.20;;;;;;4920788;29;20331;-79
2022/12/03 02:52:43;;;;;;;;;;;3.30;79.70;;;;;;4937613;29;19917;-80
2022/12/03 02:55:08;;;;;;;;;;;3.30;79.60;;;;;;4920757;29;20026;-80
2022/12/03 02:57:36;;;;;;;;;;;3.30;79.40;;;;;;4920705;29;19954;-81
2022/12/03 03:00:01;;;;;;;;;;;3.30;79.60;;;;;;4937799;29;19910;-80
2022/12/03 03:02:27;;;;;;;;;;;3.30;79.90;;;;;;4937699;29;20263;-80
2022/12/03 03:04:53;;;;;;;;;;;3.30;79.90;;;;;;4944431;29;20287;-80
2022/12/03 03:07:18;;;;;;;;;;;3.30;80.00;;;;;;4956588;29;19962;-80
2022/12/03 03:09:44;;;;;;;;;;;3.40;80.20;;;;;;4954827;28;20008;-80
2022/12/03 03:12:10;;;;;;;;;;;3.40;80.30;;;;;;4955124;29;20418;-79
2022/12/03 03:14:35;;;;;;;;;;;3.40;80.40;;;;;;4955098;29;19911;-80
2022/12/03 03:17:02;;;;;;;;;;;3.50;80.50;;;;;;4956363;29;20013;-80
2022/12/03 03:19:27;;;;;;;;;;;3.40;80.20;;;;;;4956452;29;20363;-80
2022/12/03 03:21:53;;;;;;;;;;;3.40;80.00;;;;;;4955112;29;19906;-80
2022/12/03 03:24:19;;;;;;;;;;;3.40;79.90;;;;;;4975503;28;20431;-80
2022/12/03 03:26:45;;;;;;;;;;;3.40;80.00;;;;;;4958142;28;19913;-81
2022/12/03 03:29:11;;;;;;;;;;;3.40;80.90;;;;;;4975497;28;19906;-80
2022/12/03 03:31:37;;;;;;;;;;;3.40;80.20;;;;;;4975579;28;19913;-81
2022/12/03 03:34:02;;;;;;;;;;;3.50;80.20;;;;;;4957981;28;19914;-80
2022/12/03 03:36:27;;;;;;;;;;;3.40;79.90;;;;;;4958168;28;19910;-80
2022/12/03 03:38:53;;;;;;;;;;;3.40;79.90;;;;;;4975301;28;19953;-80
2022/12/03 03:41:19;;;;;;;;;;;3.40;79.70;;;;;;4957993;28;19906;-80
2022/12/03 03:43:46;;;;;;;;;;;3.40;79.70;;;;;;4975256;28;19913;-80
2022/12/03 03:46:12;;;;;;;;;;;3.40;79.60;;;;;;4957960;28;20240;-80
2022/12/03 03:48:38;;;;;;;;;;;3.40;79.40;;;;;;4975149;28;19910;-80
2022/12/03 03:51:08;;;;;;;;;;;3.40;79.60;;;;;;4975199;28;20343;-80
2022/12/03 03:53:35;;;;;;;;;;;3.40;79.70;;;;;;4975316;28;19968;-81
2022/12/03 03:56:00;;;;;;;;;;;3.40;79.80;;;;;;4975420;28;19948;-82
2022/12/03 03:58:26;;;;;;;;;;;3.40;79.80;;;;;;4975229;28;19906;-81
2022/12/03 04:00:51;;;;;;;;;;;3.40;79.60;;;;;;4975083;28;19929;-81
2022/12/03 04:03:17;;;;;;;;;;;3.40;79.40;;;;;;4957756;28;19918;-81
2022/12/03 04:05:42;;;;;;;;;;;3.40;79.40;;;;;;4957503;28;19918;-82
2022/12/03 04:08:08;;;;;;;;;;;3.40;79.50;;;;;;4975098;28;19906;-82
2022/12/03 04:13:17;;;;;;;;;;;3.40;79.70;;;;;;4975271;28;19936;-82
2022/12/03 04:15:43;;;;;;;;;;;3.40;79.60;;;;;;4957756;28;20347;-82
2022/12/03 04:18:41;;;;;;;;;;;3.40;79.50;;;;;;4974818;28;19913;-82
2022/12/03 04:23:44;;;;;;;;;;;3.30;79.30;;;;;;4974644;28;19913;-82
2022/12/03 04:28:53;;;;;;;;;;;3.30;79.50;;;;;;4974757;28;19953;-81
2022/12/03 04:36:47;;;;;;;;;;;3.40;79.50;;;;;;4974843;28;20392;-81
2022/12/03 04:39:13;;;;;;;;;;;3.40;79.40;;;;;;4974650;28;19906;-80
2022/12/03 04:41:38;;;;;;;;;;;3.30;79.40;;;;;;4957131;28;19906;-80
2022/12/03 04:46:48;;;;;;;;;;;3.30;79.50;;;;;;4974796;28;19917;-80
2022/12/03 04:49:13;;;;;;;;;;;3.30;79.70;;;;;;4957095;28;19906;-81
2022/12/03 04:51:39;;;;;;;;;;;3.30;79.70;;;;;;4974384;28;19976;-80
2022/12/03 04:54:04;;;;;;;;;;;3.30;80.50;;;;;;4974251;28;20008;-80
2022/12/03 04:56:30;;;;;;;;;;;3.30;79.80;;;;;;4957030;28;19908;-81
2022/12/03 04:58:55;;;;;;;;;;;3.30;79.80;;;;;;4974429;28;19987;-80
2022/12/03 05:01:21;;;;;;;;;;;3.30;79.80;;;;;;4957115;28;19906;-80
2022/12/03 05:03:46;;;;;;;;;;;3.30;79.70;;;;;;4956899;28;20414;-80
2022/12/03 05:06:12;;;;;;;;;;;3.30;79.60;;;;;;4957069;28;20357;-80
2022/12/03 05:08:37;;;;;;;;;;;3.30;79.70;;;;;;4957104;28;19913;-81
2022/12/03 05:11:03;;;;;;;;;;;3.30;79.90;;;;;;4974675;28;20132;-81
2022/12/03 05:13:28;;;;;;;;;;;3.30;79.80;;;;;;4957448;28;19918;-81
2022/12/03 05:15:54;;;;;;;;;;;3.30;79.80;;;;;;4957203;28;19910;-81
2022/12/03 05:18:19;;;;;;;;;;;3.30;80.70;;;;;;4974362;28;19997;-82
2022/12/03 05:20:45;;;;;;;;;;;3.20;79.70;;;;;;4974342;28;19906;-81
2022/12/03 05:23:11;;;;;;;;;;;3.20;79.50;;;;;;4974322;28;19906;-82
2022/12/03 05:25:37;;;;;;;;;;;3.30;79.60;;;;;;4974511;28;20351;-82
2022/12/03 05:28:03;;;;;;;;;;;3.30;79.60;;;;;;4957031;28;19917;-81
2022/12/03 05:30:28;;;;;;;;;;;3.20;79.40;;;;;;4957043;28;19910;-82
2022/12/03 05:32:54;;;;;;;;;;;3.20;79.40;;;;;;4957120;28;19957;-82
2022/12/03 05:35:19;;;;;;;;;;;3.30;79.40;;;;;;4960895;28;20017;-81
2022/12/03 05:37:45;;;;;;;;;;;3.20;79.30;;;;;;4960500;28;20014;-80
2022/12/03 05:40:11;;;;;;;;;;;3.20;80.10;;;;;;4977894;28;19908;-83
2022/12/03 05:42:52;;;;;;;;;;;3.20;79.20;;;;;;4978135;28;19910;-80
2022/12/03 05:45:37;;;;;;;;;;;3.10;78.90;;;;;;4960420;28;19910;-81
2022/12/03 05:48:04;;;;;;;;;;;3.00;78.90;;;;;;4960465;28;20263;-81
2022/12/03 05:50:30;;;;;;;;;;;2.90;78.80;;;;;;4960131;28;20355;-82
2022/12/03 05:52:56;;;;;;;;;;;2.90;79.10;;;;;;4959933;28;20005;-80
2022/12/03 05:55:22;;;;;;;;;;;2.80;79.50;;;;;;4960332;28;19946;-81
2022/12/03 05:57:47;;;;;;;;;;;2.70;80.00;;;;;;4960170;28;19910;-81
2022/12/03 06:00:15;;;;;;;;;;;2.70;79.90;;;;;;4959934;28;19906;-80
2022/12/03 06:02:40;;;;;;;;;;;2.60;79.80;;;;;;4959878;28;19905;-81
2022/12/03 06:05:06;;;;;;;;;;;2.50;79.70;;;;;;4959805;28;20238;-81
2022/12/03 06:07:32;;;;;;;;;;;2.40;79.90;;;;;;4977131;28;19906;-80
2022/12/03 06:09:57;;;;;;;;;;;2.30;80.30;;;;;;4977127;28;19909;-82
2022/12/03 06:12:22;;;;;;;;;;;2.30;80.70;;;;;;4959739;28;19913;-80
2022/12/03 06:14:48;;;;;;;;;;;2.30;80.70;;;;;;4959879;28;20004;-81
2022/12/03 06:17:13;;;;;;;;;;;2.30;80.60;;;;;;4977056;28;19906;-81
2022/12/03 06:19:39;;;;;;;;;;;2.30;80.60;;;;;;4976969;28;19906;-81
2022/12/03 06:22:04;;;;;;;;;;;2.20;80.50;;;;;;4976843;28;20013;-81
2022/12/03 06:24:30;;;;;;;;;;;2.20;80.60;;;;;;4976805;28;19912;-81
2022/12/03 06:26:55;;;;;;;;;;;2.10;80.90;;;;;;4959251;28;19961;-81
2022/12/03 06:29:21;;;;;;;;;;;2.20;80.80;;;;;;4976696;28;19953;-81
2022/12/03 06:31:46;;;;;;;;;;;2.10;80.90;;;;;;4959616;28;19989;-81
2022/12/03 06:34:12;;;;;;;;;;;2.20;81.30;;;;;;4976789;28;19918;-81
2022/12/03 06:36:37;;;;;;;;;;;2.10;81.30;;;;;;4976829;28;19910;-82
2022/12/03 06:39:05;;;;;;;;;;;2.10;81.30;;;;;;4959541;28;20021;-82
2022/12/03 06:41:31;;;;;;;;;;;2.10;81.40;;;;;;4959556;28;19907;-81
2022/12/03 06:43:57;;;;;;;;;;;2.20;81.30;;;;;;4959381;28;19913;-81
2022/12/03 06:46:22;;;;;;;;;;;2.10;81.40;;;;;;4958715;28;20021;-82
2022/12/03 06:48:47;;;;;;;;;;;2.10;81.70;;;;;;4976632;28;19941;-81
2022/12/03 06:51:13;;;;;;;;;;;2.20;81.50;;;;;;4976695;28;19913;-82
2022/12/03 06:53:38;;;;;;;;;;;2.10;81.30;;;;;;4959474;28;19920;-81
2022/12/03 06:56:04;;;;;;;;;;;2.10;81.50;;;;;;4976899;28;19906;-80
2022/12/03 06:58:31;;;;;;;;;;;2.10;82.00;;;;;;4976661;28;19912;-81
2022/12/03 07:00:56;;;;;;;;;;;2.10;82.40;;;;;;4958912;28;20338;-81
2022/12/03 07:03:22;;;;;;;;;;;2.10;82.30;;;;;;4958806;28;19905;-81
2022/12/03 07:05:47;;;;;;;;;;;2.20;82.40;;;;;;4976139;28;19929;-80
2022/12/03 07:08:13;;;;;;;;;;;2.20;82.50;;;;;;4976095;28;19923;-81
2022/12/03 07:10:38;;;;;;;;;;;2.10;82.70;;;;;;4958724;28;19906;-81
2022/12/03 07:13:04;;;;;;;;;;;2.20;82.60;;;;;;4958646;28;20013;-81
2022/12/03 07:15:29;;;;;;;;;;;2.20;82.40;;;;;;4958626;28;19929;-81
2022/12/03 07:17:55;;;;;;;;;;;2.20;82.10;;;;;;4975992;28;20009;-81
2022/12/03 07:20:20;;;;;;;;;;;2.20;82.10;;;;;;4958505;28;20318;-80
2022/12/03 07:22:46;;;;;;;;;;;2.20;82.30;;;;;;4958455;28;19913;-82
2022/12/03 07:25:12;;;;;;;;;;;2.20;82.20;;;;;;4976024;28;19906;-81
2022/12/03 07:27:37;;;;;;;;;;;2.20;82.20;;;;;;4979706;28;19978;-82
2022/12/03 07:30:03;;;;;;;;;;;2.20;81.90;;;;;;4975714;28;19906;-81
2022/12/03 07:32:29;;;;;;;;;;;2.30;82.00;;;;;;4975667;28;20004;-81
2022/12/03 07:34:54;;;;;;;;;;;2.30;82.00;;;;;;4975623;28;20311;-83
2022/12/03 07:37:20;;;;;;;;;;;2.40;81.50;;;;;;4958363;28;19913;-81
2022/12/03 07:39:45;;;;;;;;;;;2.30;81.40;;;;;;4958471;28;19996;-83
2022/12/03 07:42:11;;;;;;;;;;;2.40;81.40;;;;;;4958312;28;19910;-83
2022/12/03 07:44:36;;;;;;;;;;;2.40;81.40;;;;;;4958463;28;19960;-81
2022/12/03 07:47:02;;;;;;;;;;;2.50;81.50;;;;;;4958320;28;19960;-82
2022/12/03 07:49:27;;;;;;;;;;;2.50;81.60;;;;;;4975594;28;19953;-82
2022/12/03 07:51:53;;;;;;;;;;;2.60;81.60;;;;;;4958377;28;19925;-80
2022/12/03 07:54:19;;;;;;;;;;;2.70;81.60;;;;;;4958231;28;19914;-81
2022/12/03 07:56:46;;;;;;;;;;;2.80;81.50;;;;;;4975641;28;19989;-81
2022/12/03 07:59:12;;;;;;;;;;;2.80;81.20;;;;;;4975956;28;19906;-80
2022/12/03 08:01:38;;;;;;;;;;;2.90;81.10;;;;;;4958355;28;19917;-81
2022/12/03 08:04:03;;;;;;;;;;;3.00;80.30;;;;;;4975264;28;20385;-82
2022/12/03 08:06:29;;;;;;;;;;;3.00;80.10;;;;;;4958354;28;20030;-82
2022/12/03 08:08:54;;;;;;;;;;;3.10;80.00;;;;;;4957948;28;19953;-80
2022/12/03 08:11:20;;;;;;;;;;;3.20;79.90;;;;;;4975680;28;19906;-81
2022/12/03 08:13:45;;;;;;;;;;;3.20;79.60;;;;;;4958273;28;19914;-81
2022/12/03 08:16:18;;;;;;;;;;;3.30;79.50;;;;;;4975461;28;19906;-80
2022/12/03 08:18:44;;;;;;;;;;;3.30;78.80;;;;;;4975151;28;20026;-81
2022/12/03 08:21:15;;;;;;;;;;;3.30;78.70;;;;;;4958217;28;19912;-81
2022/12/03 08:23:41;;;;;;;;;;;3.40;78.70;;;;;;4958089;28;19910;-81
2022/12/03 08:26:13;;;;;;;;;;;3.40;78.50;;;;;;4976519;28;19910;-82
2022/12/03 08:28:38;;;;;;;;;;;3.50;78.50;;;;;;4975919;28;19910;-80
2022/12/03 08:31:11;;;;;;;;;;;3.50;78.20;;;;;;4960347;28;20277;-80
2022/12/03 08:33:37;;;;;;;;;;;3.60;78.00;;;;;;4965895;28;19914;-80
2022/12/03 08:36:21;;;;;;;;;;;3.50;76.90;;;;;;4961547;28;19906;-82
2022/12/03 08:38:51;;;;;;;;;;;3.50;77.10;;;;;;4958086;28;20251;-81
2022/12/03 08:42:40;;;;;;;;;;;3.50;77.30;;;;;;4958002;28;19977;-81
2022/12/03 08:44:26;;;;;;;;;;;3.60;77.20;;;;;;4975203;28;19906;-81
2022/12/03 08:46:55;;;;;;;;;;;3.40;77.70;;;;;;4945262;28;19912;-83
2022/12/03 08:49:21;;;;;;;;;;;3.50;78.40;;;;;;4975125;28;20009;-81
2022/12/03 08:51:47;;;;;;;;;;;3.60;78.60;;;;;;4975078;28;19953;-80
2022/12/03 08:54:13;;;;;;;;;;;3.50;78.10;;;;;;4957716;28;19921;-81
2022/12/03 08:56:40;;;;;;;;;;;3.50;78.40;;;;;;4957610;28;20362;-81
2022/12/03 08:59:05;;;;;;;;;;;3.50;78.50;;;;;;4974936;28;19956;-81
2022/12/03 09:01:32;;;;;;;;;;;3.50;78.90;;;;;;4957846;28;20263;-82
2022/12/03 09:04:04;;;;;;;;;;;3.60;78.60;;;;;;4953892;29;19918;-81
2022/12/03 09:06:29;;;;;;;;;;;3.70;78.60;;;;;;4957675;29;19937;-80
2022/12/03 09:08:54;;;;;;;;;;;3.80;78.50;;;;;;4961623;28;19971;-81
2022/12/03 09:11:22;;;;;;;;;;;3.80;78.30;;;;;;4959398;29;19907;-81
2022/12/03 09:13:48;;;;;;;;;;;3.90;78.10;;;;;;4957039;29;20319;-82
2022/12/03 09:16:13;;;;;;;;;;;4.00;77.70;;;;;;4958459;29;19964;-81
2022/12/03 09:18:39;;;;;;;;;;;4.10;77.40;;;;;;4958751;29;19906;-80
2022/12/03 09:21:04;;;;;;;;;;;4.00;76.60;;;;;;4957411;29;20001;-81
2022/12/03 09:23:30;;;;;;;;;;;4.00;76.10;;;;;;4958888;29;19910;-81
2022/12/03 09:25:55;;;;;;;;;;;3.90;76.30;;;;;;4958769;29;19906;-81
2022/12/03 09:28:21;;;;;;;;;;;3.80;76.70;;;;;;4957731;29;20267;-81
2022/12/03 09:30:46;;;;;;;;;;;3.80;76.90;;;;;;4957311;29;19913;-81
2022/12/03 09:33:12;;;;;;;;;;;3.70;77.30;;;;;;4958973;29;20021;-81
2022/12/03 09:35:38;;;;;;;;;;;3.60;77.70;;;;;;4957805;29;19910;-82
2022/12/03 09:38:03;;;;;;;;;;;3.60;77.70;;;;;;4957258;29;20048;-80
2022/12/03 09:40:29;;;;;;;;;;;3.50;78.00;;;;;;4956899;29;19914;-80
2022/12/03 09:42:57;;;;;;;;;;;3.40;78.80;;;;;;4958969;29;20373;-81
2022/12/03 09:45:22;;;;;;;;;;;3.40;79.50;;;;;;4958337;29;20367;-80
2022/12/03 09:47:48;;;;;;;;;;;3.30;79.40;;;;;;4958669;29;19914;-84
2022/12/03 09:50:15;;;;;;;;;;;3.40;79.40;;;;;;4957421;29;19913;-84
2022/12/03 09:52:40;;;;;;;;;;;3.40;79.40;;;;;;4958588;29;20362;-81
2022/12/03 09:55:10;;;;;;;;;;;3.50;79.20;;;;;;4958159;29;20053;-83
2022/12/03 09:57:36;;;;;;;;;;;3.40;79.00;;;;;;4958663;29;20005;-81
2022/12/03 10:00:01;;;;;;;;;;;3.40;78.90;;;;;;4958239;29;20014;-82
2022/12/03 10:02:28;;;;;;;;;;;3.40;78.90;;;;;;4958530;29;20271;-83
2022/12/03 10:04:54;;;;;;;;;;;3.40;79.40;;;;;;4958243;29;20282;-80
2022/12/03 10:07:19;;;;;;;;;;;3.50;79.50;;;;;;4957451;29;19906;-81
2022/12/03 10:09:45;;;;;;;;;;;3.50;80.20;;;;;;4956826;29;20315;-81
2022/12/03 10:12:12;;;;;;;;;;;3.60;79.60;;;;;;4957807;29;20383;-82
2022/12/03 10:14:37;;;;;;;;;;;3.60;78.70;;;;;;4956845;29;20359;-83
2022/12/03 10:17:03;;;;;;;;;;;3.60;78.70;;;;;;4956905;29;19913;-80
2022/12/03 10:19:30;;;;;;;;;;;3.60;78.40;;;;;;4955580;28;19906;-81
2022/12/03 10:21:56;;;;;;;;;;;3.70;78.00;;;;;;4956348;29;20004;-81
2022/12/03 10:24:28;;;;;;;;;;;3.70;77.80;;;;;;4958969;29;20342;-81
2022/12/03 10:26:55;;;;;;;;;;;3.60;77.90;;;;;;4957415;29;20001;-80
2022/12/03 10:29:22;;;;;;;;;;;3.60;78.20;;;;;;4957553;29;19914;-81
2022/12/03 10:32:08;;;;;;;;;;;3.60;78.40;;;;;;4957583;29;19932;-81
2022/12/03 10:34:36;;;;;;;;;;;3.60;78.60;;;;;;4965304;28;20026;-80
2022/12/03 10:37:07;;;;;;;;;;;3.60;78.90;;;;;;4957800;29;19949;-80
2022/12/03 10:39:50;;;;;;;;;;;3.60;78.80;;;;;;4957595;29;19910;-84
2022/12/03 10:42:17;;;;;;;;;;;3.70;78.60;;;;;;4956009;29;19906;-81
2022/12/03 10:44:43;;;;;;;;;;;3.70;78.40;;;;;;4955853;29;19914;-81
2022/12/03 10:47:10;;;;;;;;;;;3.70;78.20;;;;;;4957408;29;19906;-83
2022/12/03 10:49:36;;;;;;;;;;;3.70;78.30;;;;;;4956670;29;19997;-80
2022/12/03 10:52:01;;;;;;;;;;;3.70;78.80;;;;;;4958022;29;19942;-80
2022/12/03 10:54:28;;;;;;;;;;;3.70;78.60;;;;;;4957181;29;19921;-81
2022/12/03 10:56:54;;;;;;;;;;;3.60;78.80;;;;;;4956009;29;19913;-81
2022/12/03 10:59:26;;;;;;;;;;;3.60;78.80;;;;;;4956268;29;20227;-82
2022/12/03 11:01:52;;;;;;;;;;;3.60;80.60;;;;;;4955965;29;19997;-80
2022/12/03 11:04:22;;;;;;;;;;;3.60;79.50;;;;;;4956972;29;19961;-82
2022/12/03 11:06:48;;;;;;;;;;;3.60;79.30;;;;;;4955864;29;19910;-82
2022/12/03 11:09:18;;;;;;;;;;;3.70;79.30;;;;;;4956912;29;20287;-81
2022/12/03 11:11:44;;;;;;;;;;;3.60;78.50;;;;;;4955218;29;19926;-81
2022/12/03 11:14:09;;;;;;;;;;;3.60;78.40;;;;;;4957200;29;19921;-82
2022/12/03 11:16:38;;;;;;;;;;;3.70;78.90;;;;;;4960039;29;19907;-81
2022/12/03 11:19:04;;;;;;;;;;;3.60;78.50;;;;;;4956782;29;19907;-80
2022/12/03 11:21:29;;;;;;;;;;;3.50;78.40;;;;;;4957504;29;19961;-83
2022/12/03 11:23:58;;;;;;;;;;;3.40;78.70;;;;;;4959054;29;20291;-81
2022/12/03 11:26:29;;;;;;;;;;;3.30;79.50;;;;;;4957799;29;20387;-82
2022/12/03 11:28:55;;;;;;;;;;;3.30;79.90;;;;;;4961525;29;19973;-82
2022/12/03 11:31:35;;;;;;;;;;;3.40;79.90;;;;;;4959712;28;20343;-80
2022/12/03 11:34:16;;;;;;;;;;;3.50;79.50;;;;;;4956188;29;19914;-82
2022/12/03 11:37:00;;;;;;;;;;;3.50;78.80;;;;;;4954987;29;19961;-83
2022/12/03 11:39:47;;;;;;;;;;;3.60;78.40;;;;;;4954932;29;19985;-81
2022/12/03 11:42:24;;;;;;;;;;;3.60;78.10;;;;;;4955114;29;19993;-84
2022/12/03 11:45:05;;;;;;;;;;;3.50;77.90;;;;;;4955008;29;19907;-84
2022/12/03 11:47:30;;;;;;;;;;;3.50;77.80;;;;;;4956487;29;19914;-82
2022/12/03 11:49:56;;;;;;;;;;;3.60;78.00;;;;;;4956579;29;19907;-81
2022/12/03 11:52:38;;;;;;;;;;;3.60;78.30;;;;;;4955414;29;19913;-80
2022/12/03 11:55:13;;;;;;;;;;;3.50;78.00;;;;;;4954872;29;19991;-80
2022/12/03 11:57:39;;;;;;;;;;;3.60;78.10;;;;;;4956286;29;20013;-80
2022/12/03 12:00:08;;;;;;;;;;;3.70;77.90;;;;;;4954840;29;19906;-81
2022/12/03 12:02:33;;;;;;;;;;;3.70;77.70;;;;;;4956038;29;19907;-81
2022/12/03 12:05:15;;;;;;;;;;;3.70;77.60;;;;;;4954567;29;19973;-82
2022/12/03 12:07:41;;;;;;;;;;;3.80;77.30;;;;;;4954424;29;20010;-82
2022/12/03 12:10:06;;;;;;;;;;;3.70;77.50;;;;;;4954496;29;19953;-82
2022/12/03 12:12:43;;;;;;;;;;;3.80;77.40;;;;;;4954769;29;19977;-81
2022/12/03 12:15:27;;;;;;;;;;;3.80;77.20;;;;;;4955858;29;19978;-82
2022/12/03 12:17:52;;;;;;;;;;;3.80;77.40;;;;;;4954437;29;19907;-81
2022/12/03 12:20:25;;;;;;;;;;;3.90;77.40;;;;;;4955645;29;19911;-81
2022/12/03 12:22:51;;;;;;;;;;;4.00;77.50;;;;;;4955765;29;20459;-80
2022/12/03 12:25:29;;;;;;;;;;;4.10;77.20;;;;;;4955663;29;19945;-80
2022/12/03 12:27:55;;;;;;;;;;;4.10;77.00;;;;;;4955507;29;20359;-81
2022/12/03 12:30:21;;;;;;;;;;;4.20;76.50;;;;;;4954178;29;20375;-84
2022/12/03 12:32:48;;;;;;;;;;;4.20;76.70;;;;;;4954096;29;19914;-82
2022/12/03 12:35:25;;;;;;;;;;;4.30;76.70;;;;;;4954444;29;19980;-81
2022/12/03 12:37:52;;;;;;;;;;;4.30;77.00;;;;;;4954673;29;19913;-82
2022/12/03 12:40:19;;;;;;;;;;;4.40;76.50;;;;;;4955630;29;19957;-81
2022/12/03 12:42:48;;;;;;;;;;;4.50;76.30;;;;;;4954227;28;20430;-82
2022/12/03 12:45:19;;;;;;;;;;;4.50;76.90;;;;;;4959165;29;19969;-82
2022/12/03 12:47:47;;;;;;;;;;;4.50;75.70;;;;;;4957794;29;19906;-84
2022/12/03 12:50:12;;;;;;;;;;;4.50;75.60;;;;;;4959129;29;19906;-82
2022/12/03 12:52:45;;;;;;;;;;;4.50;75.20;;;;;;4957823;29;19910;-81
2022/12/03 12:55:13;;;;;;;;;;;4.50;75.10;;;;;;4957882;29;19914;-83
2022/12/03 12:57:39;;;;;;;;;;;4.50;74.90;;;;;;4957942;29;20355;-82
2022/12/03 13:00:04;;;;;;;;;;;4.50;74.80;;;;;;4957750;29;19906;-82
2022/12/03 13:02:30;;;;;;;;;;;4.50;74.90;;;;;;4959297;29;19910;-80
2022/12/03 13:04:56;;;;;;;;;;;4.50;74.80;;;;;;4958381;29;19966;-81
2022/12/03 13:07:22;;;;;;;;;;;4.50;74.70;;;;;;4958333;29;20367;-80
2022/12/03 13:09:54;;;;;;;;;;;4.50;74.60;;;;;;4959267;29;20107;-81
2022/12/03 13:12:22;;;;;;;;;;;4.60;74.60;;;;;;4960117;29;19978;-80
2022/12/03 13:14:52;;;;;;;;;;;4.60;74.50;;;;;;4960747;29;19915;-81
2022/12/03 13:17:22;;;;;;;;;;;4.60;74.50;;;;;;4960166;29;19906;-81
2022/12/03 13:19:50;;;;;;;;;;;4.60;74.40;;;;;;4960510;29;20355;-80
2022/12/03 13:22:20;;;;;;;;;;;4.60;74.60;;;;;;4961373;29;19954;-81
2022/12/03 13:24:46;;;;;;;;;;;4.60;74.20;;;;;;4959009;29;20278;-82
2022/12/03 13:27:15;;;;;;;;;;;4.50;74.40;;;;;;4961779;29;20248;-80
2022/12/03 13:29:43;;;;;;;;;;;4.60;74.40;;;;;;4961037;29;19946;-82
2022/12/03 13:32:13;;;;;;;;;;;4.60;74.30;;;;;;4961717;29;19910;-82
2022/12/03 13:34:38;;;;;;;;;;;4.60;74.30;;;;;;4960570;29;20359;-82
2022/12/03 13:37:11;;;;;;;;;;;4.60;73.80;;;;;;4957571;29;19906;-82
2022/12/03 13:39:38;;;;;;;;;;;4.50;73.90;;;;;;4960192;29;20050;-82
2022/12/03 13:45:00;;;;;;;;;;;4.50;73.50;;;;;;4959064;29;19933;-81
2022/12/03 13:47:25;;;;;;;;;;;4.40;73.50;;;;;;4958532;29;20311;-81
2022/12/03 13:49:53;;;;;;;;;;;4.20;73.20;;;;;;4957325;29;20370;-81
2022/12/03 13:52:20;;;;;;;;;;;4.20;73.70;;;;;;4958408;29;19907;-81
2022/12/03 13:54:47;;;;;;;;;;;4.20;74.20;;;;;;4958531;28;19922;-81
2022/12/03 13:57:12;;;;;;;;;;;4.10;74.40;;;;;;4956651;29;20385;-81
2022/12/03 13:59:39;;;;;;;;;;;4.10;74.40;;;;;;4957915;29;19911;-81
2022/12/03 14:02:04;;;;;;;;;;;4.20;74.60;;;;;;4957930;29;19906;-80
2022/12/03 14:04:30;;;;;;;;;;;4.10;74.40;;;;;;4956722;29;20275;-81
2022/12/03 14:06:55;;;;;;;;;;;4.10;74.30;;;;;;4958592;29;20351;-81
2022/12/03 14:09:21;;;;;;;;;;;4.10;74.50;;;;;;4957153;29;19906;-80
2022/12/03 14:14:30;;;;;;;;;;;4.10;74.70;;;;;;4958600;29;20330;-81
2022/12/03 14:16:56;;;;;;;;;;;4.10;73.90;;;;;;4958819;29;19906;-80
2022/12/03 14:19:21;;;;;;;;;;;4.10;74.00;;;;;;4957722;29;19906;-82
2022/12/03 14:21:47;;;;;;;;;;;4.10;74.30;;;;;;4957264;29;19906;-83
2022/12/03 14:24:12;;;;;;;;;;;4.00;74.40;;;;;;4956596;29;19960;-83
2022/12/03 14:26:38;;;;;;;;;;;3.90;74.20;;;;;;4956207;29;19917;-82
2022/12/03 14:29:04;;;;;;;;;;;3.80;74.40;;;;;;4957726;29;20251;-82
2022/12/03 14:31:29;;;;;;;;;;;3.80;74.80;;;;;;4957749;29;19913;-81
2022/12/03 14:33:55;;;;;;;;;;;3.70;74.90;;;;;;4957965;29;19914;-81
2022/12/03 14:36:21;;;;;;;;;;;3.60;75.70;;;;;;4956596;29;20363;-80
2022/12/03 14:38:46;;;;;;;;;;;3.50;75.90;;;;;;4958132;29;20009;-82
2022/12/03 14:43:56;;;;;;;;;;;3.50;76.10;;;;;;4957406;29;19917;-82
2022/12/03 14:46:21;;;;;;;;;;;3.50;76.60;;;;;;4957272;29;19906;-82
2022/12/03 14:48:47;;;;;;;;;;;3.50;76.70;;;;;;4957211;29;20005;-82
2022/12/03 14:51:12;;;;;;;;;;;3.50;76.70;;;;;;4956230;29;19929;-81
2022/12/03 14:53:38;;;;;;;;;;;3.40;76.40;;;;;;4957307;29;19918;-81
2022/12/03 14:56:03;;;;;;;;;;;3.40;76.40;;;;;;4957616;29;19973;-82
2022/12/03 14:58:29;;;;;;;;;;;3.30;77.70;;;;;;4957529;29;19997;-81
2022/12/03 15:00:55;;;;;;;;;;;3.30;77.20;;;;;;4956854;29;19911;-81